createdAt,value
2018-04-15T00:00:16.973Z,97.63
2018-04-15T00:01:23.313Z,98.19
2018-04-15T00:02:29.790Z,98.89
2018-04-15T00:03:36.101Z,99.25
2018-04-15T00:04:42.320Z,98.90
2018-04-15T00:05:48.622Z,98.23
2018-04-15T00:06:54.860Z,97.15
2018-04-15T00:08:02.466Z,96.73
2018-04-15T00:09:08.936Z,98.15
2018-04-15T00:10:16.699Z,98.68
2018-04-15T00:11:22.971Z,98.99
2018-04-15T00:12:29.263Z,98.65
2018-04-15T00:13:35.572Z,97.82
2018-04-15T00:14:41.787Z,96.84
2018-04-15T00:15:48.103Z,97.32
2018-04-15T00:16:54.438Z,96.75
2018-04-15T00:18:00.724Z,97.91
2018-04-15T00:19:07.067Z,99.37
2018-04-15T00:20:13.377Z,99.56
2018-04-15T00:21:19.347Z,100.00
2018-04-15T00:22:25.605Z,100.00
2018-04-15T00:23:33.431Z,100.00
2018-04-15T00:24:41.286Z,99.50
2018-04-15T00:25:48.110Z,99.57
2018-04-15T00:26:59.291Z,99.21
2018-04-15T00:28:05.542Z,99.16
2018-04-15T00:29:11.939Z,99.75
2018-04-15T00:30:18.366Z,100.00
2018-04-15T00:31:28.467Z,100.00
2018-04-15T00:32:34.769Z,100.00
2018-04-15T00:33:41.053Z,100.00
2018-04-15T00:34:47.290Z,100.00
2018-04-15T00:35:53.571Z,100.00
2018-04-15T00:36:59.907Z,100.00
2018-04-15T00:38:06.224Z,100.00
2018-04-15T00:39:14.558Z,99.88
2018-04-15T00:40:20.748Z,99.31
2018-04-15T00:41:26.403Z,98.73
2018-04-15T00:42:32.695Z,99.23
2018-04-15T00:43:39.584Z,99.54
2018-04-15T00:44:45.955Z,99.71
2018-04-15T00:45:52.233Z,99.17
2018-04-15T00:46:58.432Z,98.82
2018-04-15T00:48:04.659Z,99.28
2018-04-15T00:49:10.934Z,99.88
2018-04-15T00:50:17.175Z,99.09
2018-04-15T00:51:24.536Z,98.90
2018-04-15T00:52:33.107Z,98.13
2018-04-15T00:55:22.515Z,97.09
2018-04-15T00:56:28.775Z,96.49
2018-04-15T00:57:37.954Z,95.54
2018-04-15T00:58:44.337Z,95.08
2018-04-15T00:59:55.898Z,94.56
2018-04-15T01:01:03.723Z,94.44
2018-04-15T01:02:10.006Z,94.83
2018-04-15T01:03:16.064Z,94.97
2018-04-15T01:04:22.347Z,96.58
2018-04-15T01:05:28.267Z,99.13
2018-04-15T01:06:34.535Z,99.12
2018-04-15T01:07:41.522Z,99.76
2018-04-15T01:08:47.799Z,99.58
2018-04-15T01:09:53.808Z,100.00
2018-04-15T01:11:00.009Z,100.00
2018-04-15T01:12:06.354Z,100.00
2018-04-15T01:13:12.596Z,100.00
2018-04-15T01:14:18.843Z,100.00
2018-04-15T01:15:25.274Z,100.00
2018-04-15T01:16:33.183Z,100.00
2018-04-15T01:17:39.430Z,100.00
2018-04-15T01:18:45.734Z,100.00
2018-04-15T01:19:52.015Z,100.00
2018-04-15T01:20:58.243Z,100.00
2018-04-15T01:22:04.095Z,100.00
2018-04-15T01:23:10.949Z,99.73
2018-04-15T01:24:17.207Z,99.78
2018-04-15T01:25:23.527Z,100.00
2018-04-15T01:26:29.472Z,100.00
2018-04-15T01:27:35.733Z,100.00
2018-04-15T01:28:42.034Z,99.92
2018-04-15T01:29:48.878Z,99.41
2018-04-15T01:30:55.142Z,98.78
2018-04-15T01:32:01.910Z,98.46
2018-04-15T01:33:08.192Z,100.00
2018-04-15T01:34:14.533Z,99.94
2018-04-15T01:35:20.802Z,100.00
2018-04-15T01:36:27.098Z,100.00
2018-04-15T01:37:35.251Z,100.00
2018-04-15T01:38:41.446Z,100.00
2018-04-15T01:39:47.756Z,100.00
2018-04-15T01:40:53.990Z,100.00
2018-04-15T01:42:00.204Z,100.00
2018-04-15T01:43:06.423Z,100.00
2018-04-15T01:44:12.763Z,100.00
2018-04-15T01:45:19.055Z,100.00
2018-04-15T01:46:26.182Z,100.00
2018-04-15T01:47:32.487Z,100.00
2018-04-15T01:48:38.690Z,100.00
2018-04-15T01:49:44.921Z,100.00
2018-04-15T01:50:51.217Z,100.00
2018-04-15T01:51:59.084Z,100.00
2018-04-15T01:53:05.262Z,100.00
2018-04-15T01:54:11.355Z,100.00
2018-04-15T01:55:21.360Z,100.00
2018-04-15T01:56:27.581Z,100.00
2018-04-15T01:57:33.916Z,99.60
2018-04-15T01:58:40.215Z,99.15
2018-04-15T01:59:46.578Z,98.84
2018-04-15T02:00:52.774Z,99.27
2018-04-15T02:01:59.049Z,100.00
2018-04-15T02:03:05.381Z,100.00
2018-04-15T02:04:11.685Z,100.00
2018-04-15T02:05:17.990Z,100.00
2018-04-15T02:06:23.998Z,100.00
2018-04-15T02:07:31.300Z,100.00
2018-04-15T02:08:38.720Z,100.00
2018-04-15T02:09:44.971Z,100.00
2018-04-15T02:10:51.208Z,100.00
2018-04-15T02:11:57.540Z,100.00
2018-04-15T02:13:03.576Z,100.00
2018-04-15T02:14:09.799Z,100.00
2018-04-15T02:15:16.072Z,100.00
2018-04-15T02:16:24.990Z,100.00
2018-04-15T02:17:37.793Z,100.00
2018-04-15T02:18:44.073Z,99.66
2018-04-15T02:19:50.411Z,99.43
2018-04-15T02:20:57.435Z,99.73
2018-04-15T02:22:04.081Z,100.00
2018-04-15T02:23:11.239Z,100.00
2018-04-15T02:24:17.449Z,100.00
2018-04-15T02:25:23.678Z,100.00
2018-04-15T02:26:29.979Z,100.00
2018-04-15T02:27:35.882Z,100.00
2018-04-15T02:28:41.911Z,100.00
2018-04-15T02:29:48.229Z,100.00
2018-04-15T02:30:54.766Z,100.00
2018-04-15T02:32:01.039Z,99.59
2018-04-15T02:33:08.018Z,99.05
2018-04-15T02:34:14.451Z,98.65
2018-04-15T02:35:20.800Z,98.47
2018-04-15T02:36:27.133Z,98.68
2018-04-15T02:37:42.683Z,99.58
2018-04-15T02:38:51.247Z,100.00
2018-04-15T02:39:58.391Z,99.86
2018-04-15T02:41:04.767Z,99.65
2018-04-15T02:42:11.718Z,99.75
2018-04-15T02:43:18.074Z,99.50
2018-04-15T02:44:24.285Z,99.00
2018-04-15T02:45:30.583Z,98.58
2018-04-15T02:46:36.815Z,98.54
2018-04-15T02:47:43.126Z,98.11
2018-04-15T02:48:49.490Z,97.55
2018-04-15T02:49:55.738Z,97.60
2018-04-15T02:51:02.087Z,97.11
2018-04-15T02:52:08.358Z,97.59
2018-04-15T02:53:14.343Z,98.36
2018-04-15T02:54:20.843Z,98.31
2018-04-15T02:55:27.150Z,98.32
2018-04-15T02:56:33.427Z,98.13
2018-04-15T02:57:40.186Z,98.03
2018-04-15T02:58:48.443Z,98.15
2018-04-15T02:59:54.627Z,98.13
2018-04-15T03:01:00.928Z,98.58
2018-04-15T03:02:08.001Z,98.42
2018-04-15T03:03:14.234Z,97.72
2018-04-15T03:04:20.464Z,97.00
2018-04-15T03:05:26.750Z,96.56
2018-04-15T03:06:33.697Z,96.28
2018-04-15T03:07:39.996Z,96.60
2018-04-15T03:08:46.318Z,96.76
2018-04-15T03:09:53.872Z,96.89
2018-04-15T03:11:00.754Z,96.96
2018-04-15T03:12:07.129Z,97.25
2018-04-15T03:13:13.386Z,97.30
2018-04-15T03:14:19.596Z,97.25
2018-04-15T03:15:25.935Z,97.06
2018-04-15T03:16:31.938Z,96.67
2018-04-15T03:17:43.341Z,96.79
2018-04-15T03:18:49.855Z,96.95
2018-04-15T03:19:56.179Z,97.50
2018-04-15T03:21:02.177Z,98.31
2018-04-15T03:22:08.474Z,99.43
2018-04-15T03:23:14.717Z,100.00
2018-04-15T03:24:20.954Z,100.00
2018-04-15T03:25:30.255Z,100.00
2018-04-15T03:26:36.499Z,100.00
2018-04-15T03:27:42.762Z,100.00
2018-04-15T03:28:49.681Z,100.00
2018-04-15T03:29:55.962Z,99.92
2018-04-15T03:31:02.330Z,99.42
2018-04-15T03:32:08.603Z,99.38
2018-04-15T03:33:14.924Z,99.37
2018-04-15T03:34:22.375Z,99.41
2018-04-15T03:35:29.362Z,99.00
2018-04-15T03:36:36.045Z,98.94
2018-04-15T03:37:42.847Z,98.77
2018-04-15T03:38:49.588Z,98.21
2018-04-15T03:39:56.515Z,97.59
2018-04-15T03:41:06.270Z,98.44
2018-04-15T03:42:12.892Z,100.00
2018-04-15T03:43:19.657Z,100.00
2018-04-15T03:44:26.260Z,99.64
2018-04-15T03:45:32.493Z,99.15
2018-04-15T03:46:38.934Z,98.67
2018-04-15T03:47:46.527Z,98.12
2018-04-15T03:48:53.102Z,97.55
2018-04-15T03:49:59.398Z,97.61
2018-04-15T03:51:05.902Z,97.42
2018-04-15T03:52:12.526Z,97.29
2018-04-15T03:53:19.487Z,96.80
2018-04-15T03:54:26.898Z,96.77
2018-04-15T03:55:34.108Z,97.09
2018-04-15T03:56:41.322Z,97.12
2018-04-15T03:57:47.505Z,97.10
2018-04-15T03:58:55.279Z,98.55
2018-04-15T04:00:01.198Z,98.35
2018-04-15T04:01:07.449Z,98.32
2018-04-15T04:02:14.311Z,97.95
2018-04-15T04:03:20.984Z,97.85
2018-04-15T04:04:27.306Z,97.53
2018-04-15T04:05:34.067Z,97.17
2018-04-15T04:06:41.483Z,97.02
2018-04-15T04:07:47.916Z,96.62
2018-04-15T04:08:54.144Z,97.49
2018-04-15T04:10:00.951Z,99.71
2018-04-15T04:11:07.776Z,99.97
2018-04-15T04:12:16.141Z,100.00
2018-04-15T04:13:22.446Z,100.00
2018-04-15T04:14:28.735Z,100.00
2018-04-15T04:15:34.782Z,100.00
2018-04-15T04:16:41.019Z,100.00
2018-04-15T04:17:58.184Z,100.00
2018-04-15T04:19:15.284Z,99.92
2018-04-15T04:22:15.946Z,98.96
2018-04-15T04:23:33.049Z,98.54
2018-04-15T04:24:51.283Z,98.31
2018-04-15T04:26:04.896Z,98.00
2018-04-15T04:27:11.508Z,97.64
2018-04-15T04:28:17.807Z,97.10
2018-04-15T04:29:25.382Z,96.80
2018-04-15T04:30:32.095Z,96.76
2018-04-15T04:31:38.346Z,96.86
2018-04-15T04:32:45.384Z,97.10
2018-04-15T04:33:51.602Z,96.86
2018-04-15T04:34:57.844Z,97.70
2018-04-15T04:36:04.133Z,97.92
2018-04-15T04:37:10.406Z,97.87
2018-04-15T04:38:16.587Z,97.70
2018-04-15T04:39:22.846Z,97.49
2018-04-15T04:40:29.983Z,98.22
2018-04-15T04:41:37.242Z,98.42
2018-04-15T04:42:44.290Z,98.58
2018-04-15T04:43:52.573Z,98.56
2018-04-15T04:45:01.285Z,98.54
2018-04-15T04:46:07.487Z,98.46
2018-04-15T04:47:13.798Z,99.18
2018-04-15T04:48:21.068Z,100.00
2018-04-15T04:49:27.704Z,100.00
2018-04-15T04:50:33.644Z,100.00
2018-04-15T04:51:40.794Z,100.00
2018-04-15T04:52:47.606Z,100.00
2018-04-15T04:53:53.790Z,100.00
2018-04-15T04:55:01.282Z,100.00
2018-04-15T04:56:08.624Z,100.00
2018-04-15T04:57:14.888Z,100.00
2018-04-15T04:58:21.145Z,100.00
2018-04-15T04:59:27.419Z,100.00
2018-04-15T05:00:34.413Z,100.00
2018-04-15T05:01:45.839Z,100.00
2018-04-15T05:02:52.102Z,100.00
2018-04-15T05:03:58.394Z,100.00
2018-04-15T05:05:12.898Z,100.00
2018-04-15T05:06:19.361Z,100.00
2018-04-15T05:07:25.302Z,100.00
2018-04-15T05:08:31.611Z,100.00
2018-04-15T05:09:38.038Z,100.00
2018-04-15T05:10:46.037Z,100.00
2018-04-15T05:11:52.864Z,100.00
2018-04-15T05:12:59.130Z,100.00
2018-04-15T05:14:05.466Z,100.00
2018-04-15T05:15:11.756Z,100.00
2018-04-15T05:16:17.988Z,100.00
2018-04-15T05:17:24.912Z,100.00
2018-04-15T05:18:31.549Z,100.00
2018-04-15T05:19:39.260Z,100.00
2018-04-15T05:20:45.611Z,100.00
2018-04-15T05:21:52.016Z,100.00
2018-04-15T05:22:59.007Z,100.00
2018-04-15T05:24:06.333Z,100.00
2018-04-15T05:25:13.693Z,100.00
2018-04-15T05:26:20.018Z,100.00
2018-04-15T05:27:26.002Z,100.00
2018-04-15T05:28:32.656Z,100.00
2018-04-15T05:29:39.988Z,100.00
2018-04-15T05:30:47.323Z,100.00
2018-04-15T05:31:53.851Z,100.00
2018-04-15T05:33:00.818Z,100.00
2018-04-15T05:34:07.629Z,100.00
2018-04-15T05:35:15.279Z,100.00
2018-04-15T05:36:23.471Z,100.00
2018-04-15T05:37:29.957Z,100.00
2018-04-15T05:38:39.182Z,100.00
2018-04-15T05:39:45.832Z,100.00
2018-04-15T05:40:52.954Z,100.00
2018-04-15T05:42:00.186Z,100.00
2018-04-15T05:43:07.468Z,100.00
2018-04-15T05:44:14.554Z,100.00
2018-04-15T05:45:22.604Z,100.00
2018-04-15T05:46:30.695Z,100.00
2018-04-15T05:47:37.740Z,100.00
2018-04-15T05:48:44.178Z,100.00
2018-04-15T05:49:50.693Z,100.00
2018-04-15T05:50:57.696Z,100.00
2018-04-15T05:52:03.921Z,100.00
2018-04-15T05:53:11.031Z,100.00
2018-04-15T05:54:17.858Z,100.00
2018-04-15T05:55:25.242Z,100.00
2018-04-15T05:56:32.303Z,100.00
2018-04-15T05:57:38.820Z,100.00
2018-04-15T05:58:45.517Z,100.00
2018-04-15T05:59:52.026Z,100.00
2018-04-15T06:00:58.668Z,100.00
2018-04-15T06:02:05.569Z,100.00
2018-04-15T06:03:15.019Z,100.00
2018-04-15T06:04:21.913Z,100.00
2018-04-15T06:05:28.126Z,100.00
2018-04-15T06:06:34.611Z,100.00
2018-04-15T06:07:47.100Z,100.00
2018-04-15T06:08:56.413Z,100.00
2018-04-15T06:10:03.779Z,100.00
2018-04-15T06:11:10.390Z,100.00
2018-04-15T06:12:17.214Z,100.00
2018-04-15T06:13:24.444Z,100.00
2018-04-15T06:14:32.487Z,100.00
2018-04-15T06:15:39.421Z,100.00
2018-04-15T06:16:47.328Z,100.00
2018-04-15T06:17:55.448Z,100.00
2018-04-15T06:19:02.759Z,100.00
2018-04-15T06:20:09.888Z,100.00
2018-04-15T06:21:16.864Z,100.00
2018-04-15T06:22:23.655Z,100.00
2018-04-15T06:23:32.158Z,100.00
2018-04-15T06:24:40.535Z,100.00
2018-04-15T06:25:47.218Z,100.00
2018-04-15T06:26:53.996Z,100.00
2018-04-15T06:28:01.240Z,100.00
2018-04-15T06:29:08.162Z,100.00
2018-04-15T06:30:14.415Z,100.00
2018-04-15T06:31:21.450Z,100.00
2018-04-15T06:32:29.827Z,100.00
2018-04-15T06:33:38.289Z,100.00
2018-04-15T06:34:44.936Z,100.00
2018-04-15T06:35:51.187Z,100.00
2018-04-15T06:36:57.408Z,100.00
2018-04-15T06:38:03.725Z,100.00
2018-04-15T06:39:10.066Z,100.00
2018-04-15T06:40:16.663Z,100.00
2018-04-15T06:41:22.951Z,100.00
2018-04-15T06:42:30.209Z,100.00
2018-04-15T06:43:37.022Z,100.00
2018-04-15T06:44:43.292Z,100.00
2018-04-15T06:45:50.517Z,100.00
2018-04-15T06:46:57.950Z,100.00
2018-04-15T06:48:07.363Z,100.00
2018-04-15T06:49:14.996Z,100.00
2018-04-15T06:50:22.005Z,100.00
2018-04-15T06:51:28.416Z,100.00
2018-04-15T06:52:35.408Z,100.00
2018-04-15T06:53:42.474Z,100.00
2018-04-15T06:54:50.433Z,100.00
2018-04-15T06:55:57.770Z,100.00
2018-04-15T06:57:10.420Z,100.00
2018-04-15T06:58:17.366Z,100.00
2018-04-15T06:59:24.437Z,100.00
2018-04-15T07:00:31.243Z,100.00
2018-04-15T07:01:38.051Z,100.00
2018-04-15T07:02:44.278Z,100.00
2018-04-15T07:03:51.018Z,100.00
2018-04-15T07:04:57.457Z,100.00
2018-04-15T07:06:04.081Z,100.00
2018-04-15T07:07:10.699Z,100.00
2018-04-15T07:08:17.530Z,99.62
2018-04-15T07:09:23.782Z,99.76
2018-04-15T07:10:30.928Z,99.99
2018-04-15T07:11:39.188Z,100.00
2018-04-15T07:12:47.272Z,97.89
2018-04-15T07:13:54.110Z,98.30
2018-04-15T07:15:02.630Z,98.07
2018-04-15T07:16:10.102Z,95.63
2018-04-15T07:17:17.083Z,95.59
2018-04-15T07:18:23.598Z,95.77
2018-04-15T07:19:31.080Z,95.21
2018-04-15T07:20:38.518Z,94.00
2018-04-15T07:21:46.825Z,92.92
2018-04-15T07:22:54.110Z,92.20
2018-04-15T07:24:00.933Z,93.31
2018-04-15T07:25:08.897Z,92.67
2018-04-15T07:26:15.503Z,93.16
2018-04-15T07:27:22.530Z,93.47
2018-04-15T07:28:29.263Z,93.32
2018-04-15T07:29:37.832Z,92.06
2018-04-15T07:30:46.581Z,89.92
2018-04-15T07:31:54.059Z,90.42
2018-04-15T07:33:01.354Z,90.54
2018-04-15T07:34:07.602Z,89.94
2018-04-15T07:35:13.843Z,88.18
2018-04-15T07:36:20.517Z,89.20
2018-04-15T07:37:26.904Z,88.99
2018-04-15T07:38:32.942Z,88.85
2018-04-15T07:39:39.192Z,88.37
2018-04-15T07:40:45.488Z,89.74
2018-04-15T07:41:51.599Z,87.64
2018-04-15T07:42:58.004Z,88.04
2018-04-15T07:44:03.980Z,88.21
2018-04-15T07:45:12.634Z,88.72
2018-04-15T07:46:21.355Z,88.98
2018-04-15T07:47:27.667Z,89.24
2018-04-15T07:48:33.946Z,89.95
2018-04-15T07:49:40.294Z,89.15
2018-04-15T07:50:46.614Z,88.84
2018-04-15T07:51:52.910Z,88.16
2018-04-15T07:53:00.064Z,87.32
2018-04-15T07:54:07.231Z,87.99
2018-04-15T07:55:13.498Z,85.71
2018-04-15T07:56:19.784Z,86.69
2018-04-15T07:57:26.226Z,86.39
2018-04-15T07:58:32.542Z,84.92
2018-04-15T07:59:38.831Z,83.85
2018-04-15T08:00:46.103Z,83.87
2018-04-15T08:01:52.816Z,82.69
2018-04-15T08:02:59.814Z,82.54
2018-04-15T08:04:06.168Z,82.37
2018-04-15T08:05:13.608Z,81.70
2018-04-15T08:06:21.060Z,81.71
2018-04-15T08:07:29.308Z,81.59
2018-04-15T08:08:36.356Z,80.71
2018-04-15T08:09:43.776Z,81.70
2018-04-15T08:10:51.880Z,80.08
2018-04-15T08:12:00.025Z,80.28
2018-04-15T08:13:08.137Z,80.84
2018-04-15T08:14:15.782Z,80.31
2018-04-15T08:15:23.796Z,81.39
2018-04-15T08:16:30.552Z,79.38
2018-04-15T08:17:37.701Z,79.63
2018-04-15T08:18:44.633Z,78.35
2018-04-15T08:19:52.001Z,79.69
2018-04-15T08:21:00.037Z,79.38
2018-04-15T08:22:07.184Z,80.14
2018-04-15T08:23:16.396Z,79.21
2018-04-15T08:24:23.743Z,76.31
2018-04-15T08:25:38.639Z,76.50
2018-04-15T08:26:47.963Z,77.65
2018-04-15T08:27:55.848Z,75.18
2018-04-15T08:29:02.723Z,73.27
2018-04-15T08:30:10.437Z,72.58
2018-04-15T08:31:17.880Z,72.26
2018-04-15T08:32:24.601Z,73.49
2018-04-15T08:33:31.050Z,72.41
2018-04-15T08:34:38.287Z,74.49
2018-04-15T08:35:49.162Z,75.71
2018-04-15T08:36:56.561Z,74.95
2018-04-15T08:38:03.643Z,74.52
2018-04-15T08:39:11.631Z,73.97
2018-04-15T08:40:25.256Z,71.47
2018-04-15T08:41:32.449Z,66.14
2018-04-15T08:42:40.217Z,69.66
2018-04-15T08:43:46.695Z,67.99
2018-04-15T08:44:54.912Z,68.06
2018-04-15T08:46:01.173Z,68.49
2018-04-15T08:47:08.855Z,67.51
2018-04-15T08:48:16.237Z,68.38
2018-04-15T08:49:24.143Z,67.33
2018-04-15T08:50:31.131Z,66.58
2018-04-15T08:51:38.098Z,68.69
2018-04-15T08:52:48.468Z,67.68
2018-04-15T08:53:59.122Z,66.38
2018-04-15T08:55:07.063Z,66.99
2018-04-15T08:56:14.599Z,67.17
2018-04-15T08:57:22.571Z,68.98
2018-04-15T08:58:30.150Z,68.81
2018-04-15T08:59:36.966Z,66.66
2018-04-15T09:00:44.024Z,67.79
2018-04-15T09:01:51.174Z,66.76
2018-04-15T09:02:59.126Z,68.98
2018-04-15T09:04:07.434Z,65.67
2018-04-15T09:05:14.717Z,65.11
2018-04-15T09:06:23.638Z,65.28
2018-04-15T09:07:29.869Z,65.36
2018-04-15T09:08:36.928Z,65.20
2018-04-15T09:09:43.617Z,65.21
2018-04-15T09:10:51.035Z,63.11
2018-04-15T09:11:57.302Z,63.38
2018-04-15T09:13:04.735Z,65.50
2018-04-15T09:14:11.053Z,64.15
2018-04-15T09:15:17.279Z,63.33
2018-04-15T09:16:23.557Z,64.52
2018-04-15T09:17:29.978Z,65.08
2018-04-15T09:18:36.240Z,66.50
2018-04-15T09:19:42.550Z,62.07
2018-04-15T09:20:48.862Z,62.82
2018-04-15T09:21:55.201Z,62.27
2018-04-15T09:23:01.463Z,61.24
2018-04-15T09:24:07.674Z,60.31
2018-04-15T09:25:14.058Z,58.25
2018-04-15T09:26:20.336Z,57.86
2018-04-15T09:27:27.071Z,55.87
2018-04-15T09:28:33.358Z,59.59
2018-04-15T09:29:39.843Z,58.51
2018-04-15T09:30:52.333Z,62.28
2018-04-15T09:31:58.631Z,62.31
2018-04-15T09:33:06.368Z,59.92
2018-04-15T09:34:13.255Z,58.14
2018-04-15T09:35:20.386Z,57.49
2018-04-15T09:36:27.235Z,59.53
2018-04-15T09:37:40.800Z,58.82
2018-04-15T09:38:50.372Z,58.15
2018-04-15T09:39:56.684Z,58.25
2018-04-15T09:41:05.356Z,57.21
2018-04-15T09:42:13.914Z,59.50
2018-04-15T09:43:20.745Z,60.23
2018-04-15T09:44:32.034Z,59.16
2018-04-15T09:45:40.526Z,57.12
2018-04-15T09:46:49.627Z,58.61
2018-04-15T09:47:56.729Z,59.08
2018-04-15T09:49:03.335Z,59.31
2018-04-15T09:50:10.145Z,58.13
2018-04-15T09:51:16.840Z,58.68
2018-04-15T09:52:24.026Z,57.79
2018-04-15T09:53:31.818Z,59.75
2018-04-15T09:54:38.606Z,58.27
2018-04-15T09:55:45.304Z,57.73
2018-04-15T09:56:52.443Z,58.66
2018-04-15T09:57:59.164Z,58.41
2018-04-15T09:59:06.545Z,57.00
2018-04-15T10:00:13.262Z,57.46
2018-04-15T10:01:21.420Z,58.61
2018-04-15T10:02:29.416Z,60.16
2018-04-15T10:03:36.250Z,61.62
2018-04-15T10:04:42.903Z,58.08
2018-04-15T10:05:49.840Z,58.23
2018-04-15T10:06:57.178Z,58.73
2018-04-15T10:08:04.056Z,56.97
2018-04-15T10:09:11.369Z,59.58
2018-04-15T10:10:18.654Z,56.95
2018-04-15T10:11:25.021Z,58.02
2018-04-15T10:12:32.073Z,56.92
2018-04-15T10:13:38.575Z,59.12
2018-04-15T10:14:45.203Z,58.15
2018-04-15T10:15:56.839Z,58.51
2018-04-15T10:17:04.785Z,57.85
2018-04-15T10:18:11.647Z,58.00
2018-04-15T10:19:19.995Z,58.95
2018-04-15T10:20:28.469Z,55.97
2018-04-15T10:21:35.357Z,57.24
2018-04-15T10:22:42.076Z,54.11
2018-04-15T10:23:48.875Z,53.78
2018-04-15T10:24:57.158Z,53.78
2018-04-15T10:26:05.107Z,53.59
2018-04-15T10:27:11.831Z,54.82
2018-04-15T10:28:19.167Z,55.46
2018-04-15T10:29:25.985Z,57.12
2018-04-15T10:30:33.456Z,58.57
2018-04-15T10:31:40.123Z,58.03
2018-04-15T10:32:47.726Z,57.47
2018-04-15T10:33:54.412Z,55.71
2018-04-15T10:35:01.845Z,55.93
2018-04-15T10:36:09.621Z,55.70
2018-04-15T10:37:17.026Z,57.40
2018-04-15T10:38:25.396Z,57.05
2018-04-15T10:39:32.210Z,58.27
2018-04-15T10:40:44.578Z,59.22
2018-04-15T10:41:53.846Z,59.20
2018-04-15T10:43:01.770Z,60.88
2018-04-15T10:44:08.511Z,56.71
2018-04-15T10:45:15.232Z,59.51
2018-04-15T10:46:21.864Z,57.17
2018-04-15T10:47:33.995Z,57.55
2018-04-15T10:48:40.898Z,58.82
2018-04-15T10:49:48.018Z,58.42
2018-04-15T10:50:55.058Z,56.73
2018-04-15T10:52:01.741Z,57.09
2018-04-15T10:53:09.169Z,58.38
2018-04-15T10:54:17.188Z,57.32
2018-04-15T10:55:25.497Z,58.39
2018-04-15T10:56:33.499Z,57.38
2018-04-15T10:57:41.650Z,58.32
2018-04-15T10:58:48.312Z,58.75
2018-04-15T10:59:55.309Z,57.57
2018-04-15T11:01:02.311Z,56.82
2018-04-15T11:02:08.936Z,56.84
2018-04-15T11:03:15.685Z,57.82
2018-04-15T11:04:23.410Z,57.33
2018-04-15T11:05:30.439Z,56.55
2018-04-15T11:06:37.964Z,56.03
2018-04-15T11:07:45.121Z,57.46
2018-04-15T11:08:52.746Z,54.86
2018-04-15T11:09:59.575Z,56.50
2018-04-15T11:11:06.093Z,55.16
2018-04-15T11:12:14.122Z,54.50
2018-04-15T11:13:20.488Z,53.56
2018-04-15T11:14:28.373Z,53.98
2018-04-15T11:15:35.727Z,55.10
2018-04-15T11:16:42.427Z,54.88
2018-04-15T11:17:48.709Z,53.50
2018-04-15T11:18:55.029Z,54.03
2018-04-15T11:20:01.394Z,55.01
2018-04-15T11:21:07.616Z,54.50
2018-04-15T11:22:13.859Z,57.42
2018-04-15T11:23:20.166Z,54.18
2018-04-15T11:24:27.694Z,53.35
2018-04-15T11:25:33.956Z,52.67
2018-04-15T11:26:40.971Z,52.21
2018-04-15T11:27:47.506Z,53.40
2018-04-15T11:28:53.799Z,52.82
2018-04-15T11:30:00.130Z,51.54
2018-04-15T11:31:06.418Z,54.56
2018-04-15T11:32:13.348Z,53.17
2018-04-15T11:33:21.025Z,54.48
2018-04-15T11:34:27.455Z,54.25
2018-04-15T11:35:34.326Z,54.65
2018-04-15T11:36:40.634Z,56.05
2018-04-15T11:37:47.311Z,55.04
2018-04-15T11:38:53.920Z,53.20
2018-04-15T11:40:00.289Z,53.17
2018-04-15T11:41:06.297Z,51.46
2018-04-15T11:42:13.793Z,51.02
2018-04-15T11:43:21.265Z,51.70
2018-04-15T11:44:27.368Z,52.24
2018-04-15T11:45:34.145Z,53.04
2018-04-15T11:46:40.402Z,55.84
2018-04-15T11:47:46.819Z,54.63
2018-04-15T11:48:53.218Z,52.94
2018-04-15T11:50:03.636Z,51.65
2018-04-15T11:51:10.915Z,51.76
2018-04-15T11:52:17.272Z,51.39
2018-04-15T11:53:23.891Z,52.88
2018-04-15T11:54:38.045Z,53.39
2018-04-15T11:55:45.350Z,54.17
2018-04-15T11:56:55.739Z,51.48
2018-04-15T11:58:03.090Z,52.90
2018-04-15T11:59:10.237Z,51.47
2018-04-15T12:00:17.356Z,56.19
2018-04-15T12:01:25.190Z,52.43
2018-04-15T12:02:32.156Z,53.17
2018-04-15T12:03:39.998Z,51.86
2018-04-15T12:04:47.558Z,50.96
2018-04-15T12:05:55.766Z,51.18
2018-04-15T12:07:03.955Z,51.88
2018-04-15T12:08:10.835Z,52.81
2018-04-15T12:09:17.603Z,52.03
2018-04-15T12:10:24.316Z,52.59
2018-04-15T12:11:31.145Z,51.99
2018-04-15T12:12:37.769Z,51.68
2018-04-15T12:13:44.318Z,51.79
2018-04-15T12:14:53.236Z,51.58
2018-04-15T12:15:59.936Z,53.55
2018-04-15T12:17:08.032Z,52.58
2018-04-15T12:18:15.157Z,50.53
2018-04-15T12:19:21.708Z,49.52
2018-04-15T12:20:28.966Z,50.50
2018-04-15T12:21:36.794Z,52.10
2018-04-15T12:22:44.076Z,51.99
2018-04-15T12:23:50.441Z,52.11
2018-04-15T12:24:56.749Z,50.84
2018-04-15T12:26:04.851Z,49.96
2018-04-15T12:27:14.761Z,49.65
2018-04-15T12:28:21.278Z,49.35
2018-04-15T12:29:28.003Z,51.17
2018-04-15T12:30:35.630Z,49.84
2018-04-15T12:31:42.252Z,50.83
2018-04-15T12:32:48.674Z,50.37
2018-04-15T12:33:55.074Z,49.76
2018-04-15T12:35:01.684Z,51.97
2018-04-15T12:36:08.922Z,49.28
2018-04-15T12:37:17.039Z,51.00
2018-04-15T12:38:23.510Z,54.37
2018-04-15T12:39:30.339Z,53.86
2018-04-15T12:40:37.385Z,51.78
2018-04-15T12:41:45.015Z,50.82
2018-04-15T12:42:52.340Z,52.02
2018-04-15T12:43:59.018Z,54.21
2018-04-15T12:45:07.074Z,53.60
2018-04-15T12:46:13.835Z,52.50
2018-04-15T12:47:21.126Z,55.15
2018-04-15T12:48:28.505Z,55.39
2018-04-15T12:49:35.380Z,56.45
2018-04-15T12:50:41.790Z,56.50
2018-04-15T12:51:50.799Z,58.29
2018-04-15T12:52:58.278Z,58.02
2018-04-15T12:54:05.451Z,58.42
2018-04-15T12:55:12.083Z,56.72
2018-04-15T12:56:19.353Z,57.08
2018-04-15T12:57:26.333Z,56.59
2018-04-15T12:58:36.327Z,57.75
2018-04-15T12:59:43.103Z,57.53
2018-04-15T13:00:52.657Z,58.94
2018-04-15T13:02:00.114Z,58.50
2018-04-15T13:03:07.977Z,58.44
2018-04-15T13:04:14.323Z,59.73
2018-04-15T13:05:20.797Z,59.13
2018-04-15T13:06:27.034Z,58.66
2018-04-15T13:07:33.376Z,59.33
2018-04-15T13:08:39.702Z,60.78
2018-04-15T13:09:45.991Z,60.13
2018-04-15T13:10:52.503Z,60.62
2018-04-15T13:11:58.851Z,60.16
2018-04-15T13:13:05.168Z,60.39
2018-04-15T13:14:12.179Z,61.10
2018-04-15T13:15:18.467Z,61.54
2018-04-15T13:16:24.796Z,61.80
2018-04-15T13:17:31.122Z,60.81
2018-04-15T13:18:37.445Z,61.83
2018-04-15T13:19:44.138Z,61.83
2018-04-15T13:20:50.551Z,61.13
2018-04-15T13:21:56.724Z,61.56
2018-04-15T13:23:03.144Z,62.08
2018-04-15T13:24:09.395Z,62.46
2018-04-15T13:25:15.361Z,59.77
2018-04-15T13:26:22.039Z,59.91
2018-04-15T13:27:28.453Z,59.42
2018-04-15T13:28:34.723Z,57.75
2018-04-15T13:29:41.122Z,59.40
2018-04-15T13:30:47.533Z,60.78
2018-04-15T13:31:53.753Z,62.25
2018-04-15T13:33:00.204Z,58.74
2018-04-15T13:34:06.487Z,59.37
2018-04-15T13:35:13.992Z,60.46
2018-04-15T13:36:20.445Z,61.09
2018-04-15T13:37:27.961Z,59.85
2018-04-15T13:38:37.814Z,60.12
2018-04-15T13:39:44.339Z,60.22
2018-04-15T13:40:50.613Z,61.25
2018-04-15T13:41:56.954Z,60.12
2018-04-15T13:43:03.465Z,61.61
2018-04-15T13:44:09.859Z,62.27
2018-04-15T13:45:16.259Z,62.31
2018-04-15T13:46:22.582Z,61.62
2018-04-15T13:47:29.516Z,60.30
2018-04-15T13:48:35.606Z,60.53
2018-04-15T13:49:41.718Z,60.83
2018-04-15T13:50:53.997Z,60.70
2018-04-15T13:52:00.400Z,60.76
2018-04-15T13:53:06.777Z,60.61
2018-04-15T13:54:19.072Z,61.70
2018-04-15T13:55:25.467Z,60.79
2018-04-15T13:56:31.882Z,61.81
2018-04-15T13:57:38.179Z,59.96
2018-04-15T13:58:45.038Z,59.70
2018-04-15T13:59:51.338Z,60.11
2018-04-15T14:00:57.764Z,60.31
2018-04-15T14:02:04.042Z,60.80
2018-04-15T14:03:10.443Z,60.01
2018-04-15T14:04:16.778Z,61.49
2018-04-15T14:05:23.179Z,61.56
2018-04-15T14:06:29.594Z,61.76
2018-04-15T14:07:35.736Z,61.32
2018-04-15T14:08:42.140Z,61.86
2018-04-15T14:09:48.784Z,61.75
2018-04-15T14:10:54.998Z,62.54
2018-04-15T14:12:01.391Z,61.46
2018-04-15T14:13:07.435Z,61.29
2018-04-15T14:14:13.904Z,62.39
2018-04-15T14:15:19.817Z,61.43
2018-04-15T14:16:26.202Z,60.75
2018-04-15T14:17:32.498Z,62.22
2018-04-15T14:18:38.973Z,60.33
2018-04-15T14:19:45.234Z,60.29